Time;durP1;ratioP1;P1;durP2;ratioP2;P2;SDS_P1;SDS_P2;PMS_P1;PMS_P2;Temp;Humidity;BMP_temperature;BMP_pressure;BME280_temperature;BME280_humidity;BME280_pressure;Samples;Min_cycle;Max_cycle;Signal;HPM_P1;HPM_P2
2022/07/18 00:02:03;;;;;;;4.80;1.67;;;25.40;37.90;;;;;;6297580;22;20060;-85
2022/07/18 00:04:29;;;;;;;2.80;2.00;;;25.30;37.90;;;;;;6294406;22;19988;-87
2022/07/18 00:06:56;;;;;;;2.17;2.00;;;25.30;39.00;;;;;;6292478;22;20049;-86
2022/07/18 00:09:23;;;;;;;2.87;1.97;;;25.30;38.00;;;;;;6296535;22;19991;-88
2022/07/18 00:12:10;;;;;;;6.40;1.63;;;25.30;38.90;;;;;;6302164;22;19995;-86
2022/07/18 00:14:39;;;;;;;5.40;1.92;;;25.30;37.90;;;;;;6300491;22;19992;-87
2022/07/18 00:17:06;;;;;;;3.30;1.90;;;25.20;39.10;;;;;;6302097;22;19983;-90
2022/07/18 00:19:37;;;;;;;3.05;1.80;;;25.20;38.10;;;;;;6268005;22;20008;-86
2022/07/18 00:22:04;;;;;;;;;;;25.20;38.30;;;;;;6268860;22;20034;-87
2022/07/18 00:24:31;;;;;;;6.47;1.92;;;25.20;37.70;;;;;;6265088;22;19903;-89
2022/07/18 00:26:58;;;;;;;;;;;25.20;38.40;;;;;;6271189;22;20034;-87
2022/07/18 00:29:24;;;;;;;2.63;2.00;;;25.20;37.60;;;;;;6264385;22;20309;-86
2022/07/18 00:31:49;;;;;;;3.08;1.90;;;25.20;38.40;;;;;;6258153;22;20003;-86
2022/07/18 00:34:15;;;;;;;2.17;1.95;;;25.10;38.80;;;;;;6256234;22;20015;-94
2022/07/18 00:36:41;;;;;;;4.50;1.88;;;25.10;39.40;;;;;;6256828;22;20058;-95
2022/07/18 00:39:06;;;;;;;4.55;1.80;;;25.10;38.50;;;;;;6262386;23;20357;-93
2022/07/18 00:41:32;;;;;;;2.67;1.92;;;25.00;38.10;;;;;;6286775;22;20018;-95
2022/07/18 00:44:00;;;;;;;3.95;1.92;;;25.00;38.30;;;;;;6262926;23;20467;-92
2022/07/18 00:46:27;;;;;;;3.35;2.03;;;25.00;38.20;;;;;;6261198;23;20006;-94
2022/07/18 00:48:53;;;;;;;3.97;2.10;;;25.00;38.40;;;;;;6255242;22;19996;-94
2022/07/18 00:51:22;;;;;;;1.83;1.60;;;25.00;38.70;;;;;;6257531;22;20066;-87
2022/07/18 00:53:49;;;;;;;7.10;2.05;;;25.00;39.10;;;;;;6259434;23;20011;-85
2022/07/18 00:56:18;;;;;;;4.32;2.00;;;25.00;38.60;;;;;;6258323;23;20015;-95
2022/07/18 00:58:44;;;;;;;4.00;1.75;;;24.90;38.60;;;;;;6257780;22;19997;-94
2022/07/18 01:03:54;;;;;;;2.33;1.80;;;24.90;40.20;;;;;;6258562;23;20476;-95
2022/07/18 01:06:35;;;;;;;6.22;1.80;;;24.80;39.10;;;;;;6262678;22;20000;-89
2022/07/18 01:09:01;;;;;;;5.65;1.98;;;24.80;39.00;;;;;;6262090;22;20065;-95
2022/07/18 01:11:28;;;;;;;2.83;1.80;;;24.70;39.20;;;;;;6262463;22;20285;-96
2022/07/18 01:13:54;;;;;;;6.07;1.85;;;24.70;39.00;;;;;;6259316;23;20456;-94
2022/07/18 01:16:21;;;;;;;3.75;2.10;;;24.70;39.70;;;;;;6261337;22;20008;-86
2022/07/18 01:18:48;;;;;;;2.40;1.80;;;24.70;39.60;;;;;;6236365;23;20000;-94
2022/07/18 01:21:15;;;;;;;2.33;1.90;;;24.60;39.30;;;;;;6281398;22;20008;-95
2022/07/18 01:23:40;;;;;;;3.15;2.25;;;24.60;40.20;;;;;;6283649;22;20075;-95
2022/07/18 01:26:07;;;;;;;2.47;1.83;;;24.60;40.50;;;;;;6284924;22;20000;-91
2022/07/18 01:28:33;;;;;;;8.20;2.10;;;24.60;39.60;;;;;;6287566;22;20027;-94
2022/07/18 01:30:58;;;;;;;4.60;1.90;;;24.60;39.90;;;;;;6296921;22;19995;-85
2022/07/18 01:33:24;;;;;;;6.07;1.90;;;24.60;40.30;;;;;;6269865;22;20000;-87
2022/07/18 01:35:54;;;;;;;9.63;2.20;;;24.50;40.30;;;;;;6290768;22;20010;-86
2022/07/18 01:38:19;;;;;;;5.55;2.35;;;24.50;40.10;;;;;;6298052;22;19987;-86
2022/07/18 01:40:45;;;;;;;5.95;2.00;;;24.50;40.50;;;;;;6270139;22;19988;-86
2022/07/18 01:43:11;;;;;;;4.35;2.00;;;24.50;40.50;;;;;;6295689;22;20055;-85
2022/07/18 01:45:37;;;;;;;2.58;1.95;;;24.40;41.60;;;;;;6296658;22;19980;-86
2022/07/18 01:48:03;;;;;;;2.17;1.98;;;24.40;40.50;;;;;;6293889;22;19995;-90
2022/07/18 01:50:28;;;;;;;2.83;2.13;;;24.40;40.20;;;;;;6291681;22;20007;-87
2022/07/18 01:52:57;;;;;;;2.20;1.90;;;24.40;41.10;;;;;;6293261;22;20002;-87
2022/07/18 01:55:23;;;;;;;3.50;1.77;;;24.40;40.60;;;;;;6292810;22;20340;-85
2022/07/18 01:57:48;;;;;;;3.38;2.08;;;24.30;41.00;;;;;;6267070;22;20030;-85
2022/07/18 02:00:14;;;;;;;3.78;2.20;;;24.30;40.80;;;;;;6267134;22;20007;-86
2022/07/18 02:02:40;;;;;;;4.10;1.70;;;24.30;41.40;;;;;;6269061;22;20007;-86
2022/07/18 02:05:07;;;;;;;2.65;1.88;;;24.20;41.20;;;;;;6293651;22;20040;-93
2022/07/18 02:07:38;;;;;;;2.83;2.03;;;24.20;42.20;;;;;;6285689;22;19996;-92
2022/07/18 02:10:18;;;;;;;3.55;2.20;;;24.10;40.70;;;;;;6290357;22;20004;-93
2022/07/18 02:12:43;;;;;;;8.23;2.03;;;24.10;41.40;;;;;;6290904;22;20022;-87
2022/07/18 02:15:12;;;;;;;5.25;2.20;;;24.10;41.50;;;;;;6264729;22;20012;-89
2022/07/18 02:17:38;;;;;;;3.28;2.10;;;24.10;41.30;;;;;;6256965;22;20255;-86
2022/07/18 02:20:05;;;;;;;1.90;1.80;;;24.00;41.90;;;;;;6279041;22;20021;-90
2022/07/18 02:22:31;;;;;;;4.57;2.20;;;24.00;41.90;;;;;;6281265;22;20030;-91
2022/07/18 02:24:57;;;;;;;3.55;1.90;;;23.90;42.30;;;;;;6282765;22;20003;-86
2022/07/18 02:27:23;;;;;;;3.80;1.90;;;23.90;42.50;;;;;;6276792;22;20000;-91
2022/07/18 02:29:49;;;;;;;3.60;1.90;;;23.80;41.90;;;;;;6279008;22;20011;-84
2022/07/18 02:32:15;;;;;;;7.47;2.03;;;23.80;42.80;;;;;;6278627;22;19999;-88
2022/07/18 02:34:41;;;;;;;5.43;2.10;;;23.70;42.30;;;;;;6281506;22;20003;-92
2022/07/18 02:37:07;;;;;;;2.95;2.10;;;23.70;43.20;;;;;;6291002;22;19995;-84
2022/07/18 02:39:33;;;;;;;2.88;2.05;;;23.60;42.60;;;;;;6263851;22;19979;-87
2022/07/18 02:41:59;;;;;;;2.58;1.95;;;23.60;43.50;;;;;;6299420;22;20066;-85
2022/07/18 02:44:25;;;;;;;6.82;2.05;;;23.60;43.30;;;;;;6287378;22;20027;-85
2022/07/18 02:46:51;;;;;;;2.78;1.98;;;23.50;43.80;;;;;;6282982;22;20387;-90
2022/07/18 02:49:29;;;;;;;4.85;2.28;;;23.50;43.00;;;;;;6275834;22;20004;-93
2022/07/18 02:51:59;;;;;;;5.07;2.10;;;23.40;43.40;;;;;;6274740;22;20000;-93
2022/07/18 02:54:27;;;;;;;2.78;2.05;;;23.30;44.00;;;;;;6274493;22;20003;-94
2022/07/18 02:56:53;;;;;;;2.88;2.25;;;23.30;44.00;;;;;;6274235;22;20035;-93
2022/07/18 02:59:20;;;;;;;3.40;2.10;;;23.30;44.90;;;;;;6275413;22;20421;-93
2022/07/18 03:01:49;;;;;;;4.82;1.90;;;23.10;44.90;;;;;;6274944;22;20015;-93
2022/07/18 03:04:16;;;;;;;4.18;2.00;;;23.20;44.80;;;;;;6274188;22;20000;-94
2022/07/18 03:06:41;;;;;;;2.22;2.03;;;23.10;45.00;;;;;;6273783;22;19999;-92
2022/07/18 03:09:08;;;;;;;3.58;2.15;;;23.10;44.90;;;;;;6273575;22;20006;-86
2022/07/18 03:11:33;;;;;;;7.32;2.28;;;23.00;45.20;;;;;;6274668;22;20007;-94
2022/07/18 03:13:59;;;;;;;3.95;2.00;;;23.00;45.70;;;;;;6273800;22;20058;-93
2022/07/18 03:16:25;;;;;;;4.18;2.20;;;22.90;44.70;;;;;;6274594;22;20008;-94
2022/07/18 03:18:51;;;;;;;4.85;2.20;;;22.90;47.20;;;;;;6284473;22;20074;-85
2022/07/18 03:21:17;;;;;;;2.67;2.15;;;23.00;48.20;;;;;;6275618;22;20141;-87
2022/07/18 03:23:42;;;;;;;4.82;2.10;;;23.00;48.60;;;;;;6272137;22;20440;-93
2022/07/18 03:26:08;;;;;;;6.70;2.28;;;23.10;48.50;;;;;;6272268;22;20000;-84
2022/07/18 03:28:34;;;;;;;5.93;2.10;;;23.00;47.30;;;;;;6273113;22;20344;-95
2022/07/18 03:30:59;;;;;;;4.25;2.05;;;22.90;47.20;;;;;;6273475;22;19996;-94
2022/07/18 03:33:28;;;;;;;5.90;2.50;;;22.90;47.50;;;;;;6274674;22;20074;-90
2022/07/18 03:35:53;;;;;;;7.68;2.33;;;22.80;46.70;;;;;;6277400;22;20015;-93
2022/07/18 03:38:19;;;;;;;3.50;2.20;;;22.80;47.40;;;;;;6275667;22;19999;-85
2022/07/18 03:40:45;;;;;;;4.35;2.38;;;22.70;47.60;;;;;;6275371;22;20010;-93
2022/07/18 03:43:10;;;;;;;6.47;2.10;;;22.70;47.90;;;;;;6271890;22;20049;-84
2022/07/18 03:45:36;;;;;;;7.28;2.13;;;22.70;47.50;;;;;;6271939;22;19999;-91
2022/07/18 03:48:02;;;;;;;4.93;2.10;;;22.60;48.40;;;;;;6271499;22;20000;-91
2022/07/18 03:50:27;;;;;;;4.22;2.10;;;22.60;48.00;;;;;;6272591;22;20424;-91
2022/07/18 03:52:54;;;;;;;3.40;2.30;;;22.60;48.00;;;;;;6275733;22;19996;-83
2022/07/18 03:55:20;;;;;;;7.72;2.30;;;22.60;48.30;;;;;;6274709;22;20008;-94
2022/07/18 03:57:46;;;;;;;7.70;2.15;;;22.60;48.50;;;;;;6273069;22;20004;-93
2022/07/18 04:00:13;;;;;;;5.50;2.10;;;22.60;48.00;;;;;;6272995;22;20455;-84
2022/07/18 04:02:39;;;;;;;9.82;2.63;;;22.60;47.90;;;;;;6273085;22;20074;-84
2022/07/18 04:05:06;;;;;;;7.57;2.22;;;22.60;48.20;;;;;;6272748;22;20086;-83
2022/07/18 04:07:31;;;;;;;3.08;2.17;;;22.60;48.00;;;;;;6272726;22;20011;-83
2022/07/18 04:09:57;;;;;;;6.22;2.10;;;22.60;48.60;;;;;;6272368;22;20012;-87
2022/07/18 04:12:23;;;;;;;5.57;2.22;;;22.60;48.40;;;;;;6275099;22;20440;-89
2022/07/18 04:14:48;;;;;;;4.38;2.58;;;22.50;48.90;;;;;;6272240;22;20340;-84
2022/07/18 04:17:14;;;;;;;2.88;2.28;;;22.50;48.50;;;;;;6272596;22;20216;-89
2022/07/18 04:19:39;;;;;;;4.13;2.20;;;22.40;48.50;;;;;;6272452;22;19999;-83
2022/07/18 04:22:05;;;;;;;6.22;2.40;;;22.40;48.70;;;;;;6272834;22;20047;-89
2022/07/18 04:24:31;;;;;;;6.40;2.30;;;22.50;49.40;;;;;;6273183;22;20000;-87
2022/07/18 04:26:56;;;;;;;4.97;2.50;;;22.50;48.70;;;;;;6273722;22;19995;-84
2022/07/18 04:29:22;;;;;;;11.23;2.75;;;22.40;49.30;;;;;;6274068;22;20011;-94
2022/07/18 04:31:48;;;;;;;4.78;2.40;;;22.40;49.40;;;;;;6273458;22;20070;-85
2022/07/18 04:34:14;;;;;;;3.22;2.13;;;22.40;49.00;;;;;;6246553;22;20391;-92
2022/07/18 04:36:39;;;;;;;5.25;2.30;;;22.50;49.00;;;;;;6273689;22;20380;-93
2022/07/18 04:39:05;;;;;;;4.63;2.40;;;22.50;49.30;;;;;;6273577;22;20023;-94
2022/07/18 04:41:30;;;;;;;5.28;2.50;;;22.50;48.80;;;;;;6246618;22;20003;-85
2022/07/18 04:43:56;;;;;;;6.15;2.40;;;22.50;48.90;;;;;;6273478;22;19999;-84
2022/07/18 04:46:22;;;;;;;6.50;2.55;;;22.50;49.10;;;;;;6274350;22;19995;-93
2022/07/18 04:48:47;;;;;;;3.92;2.30;;;22.60;48.70;;;;;;6273455;22;20459;-93
2022/07/18 04:51:13;;;;;;;3.70;2.10;;;22.60;49.30;;;;;;6248837;22;20004;-93
2022/07/18 04:53:39;;;;;;;4.28;2.00;;;22.60;49.80;;;;;;6273952;22;20007;-91
2022/07/18 04:56:04;;;;;;;5.78;2.10;;;22.60;49.40;;;;;;6273457;22;20047;-91
2022/07/18 04:58:30;;;;;;;5.07;2.38;;;22.60;49.20;;;;;;6273516;22;20007;-90
2022/07/18 05:00:56;;;;;;;8.38;2.58;;;22.60;49.70;;;;;;6274239;22;20038;-84
2022/07/18 05:03:22;;;;;;;9.40;2.67;;;22.60;49.70;;;;;;6273911;22;20042;-92
2022/07/18 05:05:47;;;;;;;8.60;2.70;;;22.70;49.50;;;;;;6273306;22;20011;-91
2022/07/18 05:08:13;;;;;;;9.43;2.50;;;22.70;50.10;;;;;;6273119;22;20332;-92
2022/07/18 05:10:40;;;;;;;11.52;2.72;;;22.70;49.60;;;;;;6273067;22;20000;-91
2022/07/18 05:13:05;;;;;;;6.40;2.65;;;22.70;50.00;;;;;;6272955;22;20002;-93
2022/07/18 05:15:31;;;;;;;7.03;2.35;;;22.70;50.70;;;;;;6273007;22;20012;-92
2022/07/18 05:17:57;;;;;;;8.38;2.50;;;22.70;50.00;;;;;;6273789;22;20498;-83
2022/07/18 05:20:25;;;;;;;12.50;2.38;;;22.90;50.30;;;;;;6269322;22;20012;-93
2022/07/18 05:22:51;;;;;;;6.30;2.00;;;22.80;49.90;;;;;;6263163;22;19988;-83
2022/07/18 05:25:18;;;;;;;6.65;2.47;;;22.80;50.00;;;;;;6265813;22;19992;-83
2022/07/18 05:27:44;;;;;;;6.80;2.40;;;22.90;49.80;;;;;;6261954;22;20004;-83
2022/07/18 05:30:12;;;;;;;5.88;2.17;;;22.90;50.30;;;;;;6261202;23;20007;-89
2022/07/18 05:32:38;;;;;;;;;;;22.90;49.60;;;;;;6250634;22;20124;-83
2022/07/18 05:35:05;;;;;;;3.70;2.22;;;23.00;49.20;;;;;;6243142;22;19907;-90
2022/07/18 05:37:30;;;;;;;7.30;2.78;;;23.00;49.30;;;;;;6242856;22;20000;-93
2022/07/18 05:39:56;;;;;;;6.75;2.70;;;23.00;50.90;;;;;;6249098;23;20011;-88
2022/07/18 05:42:22;;;;;;;3.97;2.30;;;23.10;50.00;;;;;;6246458;23;20001;-85
2022/07/18 05:44:47;;;;;;;6.65;2.30;;;23.20;52.30;;;;;;6246276;23;20433;-93
2022/07/18 05:47:13;;;;;;;4.78;2.53;;;23.20;52.80;;;;;;6262402;23;19988;-84
2022/07/18 05:49:47;;;;;;;7.18;2.28;;;;;;;;;;6259746;22;20027;-84
2022/07/18 05:52:13;;;;;;;6.93;2.33;;;23.30;48.70;;;;;;6264169;22;20019;-95
2022/07/18 05:54:38;;;;;;;5.65;2.30;;;23.40;50.20;;;;;;6248183;23;20008;-86
2022/07/18 05:57:04;;;;;;;5.85;2.42;;;23.40;49.40;;;;;;6262064;22;20019;-84
2022/07/18 05:59:30;;;;;;;5.43;2.50;;;23.60;51.00;;;;;;6265229;22;20001;-85
2022/07/18 06:01:56;;;;;;;3.33;2.20;;;23.60;50.20;;;;;;6266382;22;19999;-85
2022/07/18 06:04:22;;;;;;;7.20;2.30;;;23.70;50.10;;;;;;6249677;22;20011;-86
2022/07/18 06:06:49;;;;;;;10.85;2.38;;;23.60;49.70;;;;;;6271272;22;20132;-93
2022/07/18 06:09:16;;;;;;;5.78;2.40;;;23.70;49.90;;;;;;6255639;22;19984;-85
2022/07/18 06:11:45;;;;;;;8.00;2.25;;;23.80;50.00;;;;;;6256805;22;20000;-88
2022/07/18 06:14:10;;;;;;;6.05;2.38;;;23.80;50.50;;;;;;6262039;22;20000;-84
2022/07/18 06:16:36;;;;;;;2.40;2.20;;;23.80;50.50;;;;;;6250454;23;20015;-89
2022/07/18 06:19:03;;;;;;;4.55;2.40;;;23.90;50.50;;;;;;6255875;22;20003;-90
2022/07/18 06:21:29;;;;;;;3.33;2.10;;;23.90;49.90;;;;;;6279373;22;20090;-85
2022/07/18 06:23:55;;;;;;;3.78;2.20;;;;;;;;;;6276435;22;20030;-85
2022/07/18 06:26:21;;;;;;;10.38;2.40;;;24.00;49.10;;;;;;6274995;22;20000;-85
2022/07/18 06:28:47;;;;;;;6.93;2.50;;;24.10;50.20;;;;;;6252990;22;20440;-93
2022/07/18 06:31:16;;;;;;;9.50;2.63;;;24.10;50.20;;;;;;6272674;22;19996;-93
2022/07/18 06:33:42;;;;;;;5.20;2.35;;;24.10;50.00;;;;;;6272303;22;20448;-93
2022/07/18 06:36:08;;;;;;;4.80;2.30;;;24.20;50.10;;;;;;6275817;22;20011;-92
2022/07/18 06:38:34;;;;;;;8.93;2.53;;;24.20;50.20;;;;;;6251983;22;20035;-90
2022/07/18 06:40:59;;;;;;;4.13;2.10;;;24.30;50.80;;;;;;6247043;22;20010;-90
2022/07/18 06:43:25;;;;;;;3.20;2.30;;;24.40;51.00;;;;;;6245130;22;20003;-88
2022/07/18 06:45:52;;;;;;;4.50;2.10;;;;;;;;;;6272456;22;20448;-90
2022/07/18 06:48:18;;;;;;;5.38;2.28;;;24.50;50.40;;;;;;6272616;22;20428;-93
2022/07/18 06:50:44;;;;;;;5.82;2.20;;;24.50;51.90;;;;;;6272570;22;20455;-93
2022/07/18 06:53:09;;;;;;;8.02;2.58;;;24.60;51.50;;;;;;6272817;22;19996;-89
2022/07/18 06:55:35;;;;;;;7.13;2.40;;;24.60;51.40;;;;;;6245496;22;20026;-92
2022/07/18 06:58:01;;;;;;;5.80;2.45;;;24.70;51.40;;;;;;6273400;22;20007;-88
2022/07/18 07:00:27;;;;;;;5.70;2.55;;;24.70;50.80;;;;;;6246050;22;20008;-92
2022/07/18 07:02:52;;;;;;;4.22;2.22;;;24.80;51.30;;;;;;6245346;22;20422;-89
2022/07/18 07:05:21;;;;;;;11.27;2.60;;;24.80;50.70;;;;;;6272078;22;20007;-89
2022/07/18 07:07:52;;;;;;;7.53;2.40;;;25.00;51.30;;;;;;6244411;22;20003;-90
2022/07/18 07:10:18;;;;;;;6.10;2.60;;;25.00;51.50;;;;;;6244714;22;20011;-92
2022/07/18 07:12:50;;;;;;;22.65;2.90;;;25.00;51.50;;;;;;6245032;22;20451;-89
2022/07/18 07:15:18;;;;;;;9.45;2.55;;;25.20;52.30;;;;;;6247403;22;20016;-96
2022/07/18 07:17:44;;;;;;;12.30;2.45;;;25.20;50.90;;;;;;6271857;22;19999;-89
2022/07/18 07:20:11;;;;;;;10.18;2.45;;;25.30;51.60;;;;;;6233440;23;20031;-88
2022/07/18 07:22:51;;;;;;;7.75;2.58;;;25.40;52.90;;;;;;6240005;22;20336;-89
2022/07/18 07:25:19;;;;;;;5.50;2.30;;;25.50;51.10;;;;;;6240755;22;20008;-87
2022/07/18 07:27:45;;;;;;;9.85;2.72;;;25.60;51.20;;;;;;6241756;22;20000;-91
2022/07/18 07:30:12;;;;;;;7.00;2.40;;;25.70;52.10;;;;;;6241879;22;20075;-90
2022/07/18 07:32:39;;;;;;;5.70;2.50;;;25.80;51.40;;;;;;6240605;22;20076;-85
2022/07/18 07:35:10;;;;;;;10.80;3.03;;;25.80;51.70;;;;;;6240127;22;20007;-83
2022/07/18 07:37:35;;;;;;;11.35;2.50;;;25.90;51.60;;;;;;6241463;22;20004;-85
2022/07/18 07:40:02;;;;;;;6.10;2.20;;;26.10;52.00;;;;;;6242250;22;20074;-85
2022/07/18 07:42:28;;;;;;;5.47;2.30;;;26.20;52.00;;;;;;6240854;23;20356;-88
2022/07/18 07:45:01;;;;;;;5.65;2.35;;;26.30;51.70;;;;;;6244146;23;20750;-85
2022/07/18 07:47:28;;;;;;;7.13;2.13;;;26.40;51.40;;;;;;6249672;22;20000;-92
2022/07/18 07:49:58;;;;;;;7.17;2.43;;;26.50;51.30;;;;;;6248036;22;20011;-85
2022/07/18 07:52:23;;;;;;;12.43;2.70;;;26.60;50.70;;;;;;6246104;23;20058;-95
2022/07/18 07:54:50;;;;;;;7.72;2.78;;;26.60;48.50;;;;;;6244114;22;20016;-91
2022/07/18 07:57:16;;;;;;;5.38;2.25;;;26.70;48.90;;;;;;6251695;22;19996;-85
2022/07/18 07:59:41;;;;;;;9.73;2.50;;;26.90;47.80;;;;;;6243499;22;20011;-92
2022/07/18 08:02:08;;;;;;;8.05;2.63;;;27.00;47.40;;;;;;6248422;23;19997;-90
2022/07/18 08:04:33;;;;;;;11.55;2.20;;;27.10;45.80;;;;;;6249466;23;20038;-93
2022/07/18 08:06:59;;;;;;;4.40;2.15;;;27.20;46.20;;;;;;6256393;23;19984;-86
2022/07/18 08:09:25;;;;;;;6.93;2.47;;;27.20;46.50;;;;;;6261740;22;20003;-90
2022/07/18 08:11:50;;;;;;;6.32;2.00;;;27.40;45.00;;;;;;6260367;23;20016;-86
2022/07/18 08:14:16;;;;;;;4.25;2.10;;;27.50;44.00;;;;;;6263722;23;20007;-92
2022/07/18 08:16:42;;;;;;;5.22;2.28;;;27.60;45.80;;;;;;6250723;23;20015;-92
2022/07/18 08:19:07;;;;;;;6.90;2.05;;;27.70;45.70;;;;;;6243940;23;20066;-93
2022/07/18 08:21:33;;;;;;;8.80;2.50;;;27.80;44.40;;;;;;6242210;23;20016;-93
2022/07/18 08:23:59;;;;;;;2.60;2.13;;;28.00;43.80;;;;;;6240909;22;19996;-89
2022/07/18 08:26:25;;;;;;;5.55;2.30;;;28.10;44.70;;;;;;6238833;23;20024;-84
2022/07/18 08:28:51;;;;;;;6.38;2.20;;;28.20;43.90;;;;;;6241193;22;20026;-84
2022/07/18 08:31:18;;;;;;;7.40;2.67;;;28.30;43.80;;;;;;6242246;22;20000;-95
2022/07/18 08:33:45;;;;;;;6.90;2.30;;;28.40;43.20;;;;;;6241512;22;20031;-94
2022/07/18 08:36:10;;;;;;;4.50;2.08;;;28.50;42.70;;;;;;6246756;22;20055;-84
2022/07/18 08:38:40;;;;;;;10.80;2.35;;;28.60;42.50;;;;;;6261446;22;20075;-94
2022/07/18 08:41:06;;;;;;;10.10;2.58;;;28.60;41.20;;;;;;6269195;22;19988;-93
2022/07/18 08:43:32;;;;;;;8.52;2.45;;;28.70;41.40;;;;;;6262295;22;20000;-91
2022/07/18 08:46:05;;;;;;;7.80;2.50;;;28.90;40.60;;;;;;6254968;22;20004;-94
2022/07/18 08:48:32;;;;;;;8.85;2.42;;;29.00;39.40;;;;;;6257858;22;20015;-96
2022/07/18 08:51:09;;;;;;;11.93;2.20;;;29.10;40.10;;;;;;6251879;22;20279;-85
2022/07/18 08:53:37;;;;;;;4.20;2.15;;;29.20;40.40;;;;;;6256995;22;20004;-84
2022/07/18 08:56:08;;;;;;;6.93;2.13;;;29.30;39.30;;;;;;6262816;23;20040;-94
2022/07/18 08:58:33;;;;;;;8.75;2.20;;;29.50;39.80;;;;;;6261691;22;20011;-95
2022/07/18 09:00:59;;;;;;;10.82;2.10;;;29.50;38.70;;;;;;6262060;22;20000;-91
2022/07/18 09:03:26;;;;;;;7.43;2.33;;;29.60;38.20;;;;;;6258732;22;19991;-85
2022/07/18 09:06:12;;;;;;;12.13;2.25;;;29.70;38.90;;;;;;6249979;23;20498;-91
2022/07/18 09:09:04;;;;;;;7.57;2.50;;;29.90;38.90;;;;;;6248657;23;20074;-84
2022/07/18 09:11:30;;;;;;;5.50;2.10;;;29.90;37.20;;;;;;6242670;23;20024;-86
2022/07/18 09:13:55;;;;;;;7.85;2.35;;;30.00;37.90;;;;;;6251525;23;20011;-89
2022/07/18 09:16:23;;;;;;;9.80;2.42;;;30.10;37.10;;;;;;6245640;23;20019;-93
2022/07/18 09:18:49;;;;;;;8.18;2.17;;;30.30;36.90;;;;;;6241444;23;20444;-91
2022/07/18 09:21:20;;;;;;;6.60;2.20;;;30.30;37.10;;;;;;6261562;22;20035;-92
2022/07/18 09:23:48;;;;;;;13.13;2.45;;;30.40;36.10;;;;;;6272629;22;19995;-87
2022/07/18 09:26:41;;;;;;;12.32;2.20;;;30.60;35.80;;;;;;6273127;22;20011;-92
2022/07/18 09:29:09;;;;;;;8.65;2.28;;;30.50;35.20;;;;;;6273684;22;20038;-95
2022/07/18 09:31:34;;;;;;;20.55;2.35;;;30.60;34.60;;;;;;6247360;22;20095;-91
2022/07/18 09:34:02;;;;;;;5.80;2.20;;;30.70;35.10;;;;;;6246646;22;20000;-91
2022/07/18 09:36:30;;;;;;;10.68;2.22;;;30.90;34.70;;;;;;6272243;22;20035;-91
2022/07/18 09:38:55;;;;;;;6.32;2.20;;;30.90;35.40;;;;;;6246008;22;20341;-95
2022/07/18 09:41:32;;;;;;;4.05;2.30;;;31.10;36.80;;;;;;6272514;22;20004;-88
2022/07/18 09:43:58;;;;;;;5.03;2.10;;;31.10;34.70;;;;;;6276890;22;20000;-91
2022/07/18 09:46:24;;;;;;;3.17;2.25;;;31.20;34.60;;;;;;6245578;22;20010;-88
2022/07/18 09:49:08;;;;;;;7.43;2.05;;;31.20;34.30;;;;;;6272753;22;20395;-94
2022/07/18 09:51:34;;;;;;;6.60;2.10;;;31.40;31.50;;;;;;6272840;22;20069;-88
2022/07/18 09:54:02;;;;;;;9.20;2.20;;;31.40;33.50;;;;;;6274760;22;20660;-87
2022/07/18 09:56:33;;;;;;;9.48;2.05;;;31.50;33.20;;;;;;6274101;22;20092;-88
2022/07/18 09:58:59;;;;;;;8.45;2.03;;;31.50;31.60;;;;;;6273495;22;20000;-88
2022/07/18 10:01:25;;;;;;;5.97;2.00;;;31.60;31.70;;;;;;6275304;22;20010;-90
2022/07/18 10:03:51;;;;;;;4.03;1.75;;;31.70;31.60;;;;;;6277567;22;19996;-88
2022/07/18 10:06:21;;;;;;;3.38;1.90;;;31.80;31.60;;;;;;6271961;22;20380;-90
2022/07/18 10:08:47;;;;;;;3.58;1.83;;;31.80;31.40;;;;;;6245515;22;20011;-94
2022/07/18 10:11:13;;;;;;;11.45;2.30;;;31.80;30.70;;;;;;6244957;22;20004;-88
2022/07/18 10:13:39;;;;;;;3.55;2.10;;;31.80;29.70;;;;;;6276164;22;20097;-91
2022/07/18 10:16:05;;;;;;;12.70;2.22;;;31.80;29.70;;;;;;6272277;22;20015;-89
2022/07/18 10:18:34;;;;;;;7.45;2.15;;;31.90;29.90;;;;;;6272053;22;19999;-92
2022/07/18 10:21:09;;;;;;;1.88;1.67;;;32.00;29.60;;;;;;6272664;22;20046;-89
2022/07/18 10:23:46;;;;;;;1.65;1.55;;;32.10;29.50;;;;;;6245811;22;20034;-94
2022/07/18 10:26:24;;;;;;;4.43;1.80;;;32.10;29.60;;;;;;6252911;22;19999;-90
2022/07/18 10:28:55;;;;;;;4.25;1.92;;;32.20;30.10;;;;;;6278602;22;20035;-85
2022/07/18 10:31:22;;;;;;;2.63;1.65;;;32.30;29.60;;;;;;6271121;22;20083;-92
2022/07/18 10:33:48;;;;;;;6.93;1.67;;;32.40;28.10;;;;;;6270662;22;20698;-88
2022/07/18 10:36:39;;;;;;;6.95;1.80;;;32.40;28.70;;;;;;6243351;22;20023;-88
2022/07/18 10:39:25;;;;;;;5.57;1.67;;;32.60;27.80;;;;;;6252051;22;20026;-95
2022/07/18 10:42:11;;;;;;;8.55;2.22;;;32.60;28.50;;;;;;6274175;22;19999;-94
2022/07/18 10:44:40;;;;;;;2.78;1.77;;;32.70;28.10;;;;;;6276533;22;20011;-94
2022/07/18 10:47:17;;;;;;;7.18;1.70;;;32.70;27.60;;;;;;6272441;22;20053;-93
2022/07/18 10:49:46;;;;;;;7.65;1.63;;;32.70;27.40;;;;;;6273383;22;20035;-87
2022/07/18 10:52:32;;;;;;;8.15;1.60;;;32.90;27.40;;;;;;6275560;22;20017;-85
2022/07/18 10:57:36;;;;;;;1.85;1.40;;;33.00;26.80;;;;;;6297826;22;20242;-86
2022/07/18 11:00:27;;;;;;;3.35;1.45;;;33.20;26.50;;;;;;6300405;22;19979;-87
2022/07/18 11:03:07;;;;;;;4.03;1.30;;;33.20;25.90;;;;;;6290892;22;20004;-92
2022/07/18 11:05:42;;;;;;;7.70;1.63;;;33.10;24.90;;;;;;6284108;22;20309;-92
2022/07/18 11:08:12;;;;;;;3.78;1.55;;;33.20;25.50;;;;;;6280970;22;20005;-95
2022/07/18 11:10:44;;;;;;;2.45;1.35;;;33.20;25.20;;;;;;6278307;22;20007;-93
2022/07/18 11:13:48;;;;;;;3.00;1.45;;;33.40;25.60;;;;;;6273958;22;20011;-94
2022/07/18 11:16:18;;;;;;;3.17;1.70;;;33.50;25.20;;;;;;6193876;22;20358;-87
2022/07/18 11:18:43;;;;;;;30.63;2.60;;;33.60;26.80;;;;;;6245739;22;20010;-92
2022/07/18 11:21:21;;;;;;;7.45;1.35;;;33.70;26.50;;;;;;6273018;22;20086;-88
2022/07/18 11:23:50;;;;;;;4.47;1.40;;;33.80;25.60;;;;;;6272611;22;20325;-91
2022/07/18 11:26:19;;;;;;;8.38;1.80;;;33.80;25.10;;;;;;6271256;22;20010;-94
2022/07/18 11:28:48;;;;;;;6.55;1.63;;;33.80;24.90;;;;;;6272184;22;20425;-88
2022/07/18 11:31:15;;;;;;;13.48;1.85;;;33.90;24.70;;;;;;6271142;22;20007;-87
2022/07/18 11:33:46;;;;;;;15.60;1.50;;;34.00;24.50;;;;;;6274644;22;20053;-94
2022/07/18 11:36:15;;;;;;;3.55;1.42;;;34.10;23.60;;;;;;6272478;22;19999;-92
2022/07/18 11:39:01;;;;;;;5.72;1.50;;;34.20;23.40;;;;;;6273940;22;20003;-94
2022/07/18 11:41:27;;;;;;;7.95;1.40;;;34.10;23.50;;;;;;6271117;22;20007;-96
2022/07/18 11:43:56;;;;;;;2.88;1.30;;;34.10;23.40;;;;;;6279023;22;20059;-95
2022/07/18 11:46:24;;;;;;;2.78;1.40;;;34.20;23.20;;;;;;6247640;22;20098;-94
2022/07/18 11:48:58;;;;;;;3.38;1.48;;;;;;;;;;6272506;22;20038;-94
2022/07/18 11:51:24;;;;;;;10.35;1.75;;;;;;;;;;6269877;22;20031;-94
2022/07/18 11:53:51;;;;;;;4.38;1.50;;;;;;;;;;6269835;22;20004;-91
2022/07/18 11:56:18;;;;;;;7.35;1.80;;;;;;;;;;6243286;22;20046;-87
2022/07/18 11:58:45;;;;;;;5.85;1.55;;;;;;;;;;6271411;22;20003;-91
2022/07/18 12:01:11;;;;;;;;;;;;;;;;;;6271689;22;20011;-85
2022/07/18 12:03:40;;;;;;;5.17;1.50;;;34.20;23.00;;;;;;6270282;22;19899;-91
2022/07/18 12:06:14;;;;;;;6.55;1.73;;;34.60;22.80;;;;;;6242697;22;20415;-93
2022/07/18 12:08:45;;;;;;;5.93;1.60;;;34.60;23.50;;;;;;6271726;22;20000;-87
2022/07/18 12:11:34;;;;;;;7.88;2.00;;;34.60;24.50;;;;;;6271449;22;20079;-90
2022/07/18 12:14:13;;;;;;;5.50;1.55;;;;;;;;;;6245675;22;20407;-86
2022/07/18 12:16:42;;;;;;;3.72;1.60;;;34.60;23.20;;;;;;6245461;22;20012;-86
2022/07/18 12:19:12;;;;;;;3.28;1.80;;;34.80;23.10;;;;;;6273634;22;19996;-93
2022/07/18 12:21:39;;;;;;;10.57;1.83;;;34.70;23.80;;;;;;6273425;22;20008;-86
2022/07/18 12:24:32;;;;;;;3.83;1.73;;;34.80;23.30;;;;;;6273676;22;20166;-89
2022/07/18 12:27:09;;;;;;;8.30;1.67;;;34.70;22.90;;;;;;6246188;22;20348;-93
2022/07/18 12:29:54;;;;;;;3.85;1.75;;;34.70;23.00;;;;;;6274382;22;20086;-93
2022/07/18 12:32:24;;;;;;;9.05;2.28;;;34.80;22.80;;;;;;6273679;22;20010;-87
2022/07/18 12:35:05;;;;;;;12.65;2.20;;;35.00;22.80;;;;;;6273398;22;20011;-91
2022/07/18 12:37:31;;;;;;;9.95;2.00;;;34.90;23.20;;;;;;6273294;22;20045;-93
2022/07/18 12:39:58;;;;;;;6.22;2.00;;;34.90;22.40;;;;;;6272441;22;20381;-86
2022/07/18 12:42:32;;;;;;;3.42;1.80;;;35.00;23.40;;;;;;6272125;22;20095;-90
2022/07/18 12:45:04;;;;;;;8.73;2.28;;;35.10;22.80;;;;;;6245359;22;20004;-94
2022/07/18 12:47:30;;;;;;;4.07;2.08;;;35.10;23.40;;;;;;6272442;22;20008;-91
2022/07/18 12:49:55;;;;;;;10.73;2.83;;;35.10;22.70;;;;;;6271496;22;20064;-90
2022/07/18 12:52:21;;;;;;;6.28;1.80;;;35.10;23.10;;;;;;6244703;22;20430;-91
2022/07/18 12:54:47;;;;;;;9.53;2.27;;;35.10;22.60;;;;;;6245726;22;20015;-86
2022/07/18 12:57:14;;;;;;;10.38;2.28;;;35.20;23.00;;;;;;6273551;22;20008;-91
2022/07/18 12:59:40;;;;;;;11.23;2.05;;;35.30;22.50;;;;;;6273878;22;20006;-87
2022/07/18 13:02:05;;;;;;;10.82;2.40;;;35.30;22.20;;;;;;6271659;22;20078;-91